Time;durP1;ratioP1;P1;durP2;ratioP2;P2;SDS_P1;SDS_P2;PMS_P1;PMS_P2;Temp;Humidity;BMP_temperature;BMP_pressure;BME280_temperature;BME280_humidity;BME280_pressure;Samples;Min_cycle;Max_cycle;Signal;HPM_P1;HPM_P2
2021/10/05 00:00:56;;;;;;;;;0.75;0.75;;;;;16.93;63.25;101006.91;5039324;28;45435;-88
2021/10/05 00:03:22;;;;;;;;;0.75;0.75;;;;;16.95;63.39;101011.19;5039600;28;46570;-88
2021/10/05 00:05:47;;;;;;;;;1.00;1.00;;;;;16.93;63.59;101006.91;5039144;28;45430;-88
2021/10/05 00:08:12;;;;;;;;;1.25;0.00;;;;;16.91;63.29;100991.06;5040134;28;45237;-89
2021/10/05 00:10:38;;;;;;;;;2.00;1.00;;;;;16.91;63.37;100993.72;5021875;28;46059;-89
2021/10/05 00:13:03;;;;;;;;;2.00;1.00;;;;;16.92;63.43;100992.78;5039501;28;45554;-89
2021/10/05 00:15:29;;;;;;;;;2.50;1.00;;;;;16.91;63.18;100985.75;5038970;28;45159;-89
2021/10/05 00:17:54;;;;;;;;;1.00;0.00;;;;;16.92;63.40;100999.88;5040089;28;45320;-88
2021/10/05 00:20:19;;;;;;;;;1.00;1.00;;;;;16.87;63.28;100990.38;5039429;28;45352;-88
2021/10/05 00:22:45;;;;;;;;;1.00;1.00;;;;;16.86;63.34;100991.34;5038635;28;46279;-89
2021/10/05 00:25:12;;;;;;;;;0.75;0.75;;;;;16.84;63.44;100987.06;5037573;28;45201;-88
2021/10/05 00:27:37;;;;;;;;;0.00;0.00;;;;;16.86;63.51;100987.81;5039437;28;45158;-88
2021/10/05 00:30:05;;;;;;;;;0.50;0.50;;;;;16.82;63.67;100981.81;5039557;28;45391;-89
2021/10/05 00:32:30;;;;;;;;;0.50;0.50;;;;;16.82;64.11;100984.47;5038188;28;46608;-89
2021/10/05 00:34:56;;;;;;;;;1.00;1.00;;;;;16.77;63.53;100973.25;5038516;28;45348;-87
2021/10/05 00:37:21;;;;;;;;;1.00;1.00;;;;;16.76;64.07;100976.84;5039634;28;45293;-89
2021/10/05 00:39:46;;;;;;;;;1.50;0.50;;;;;16.67;63.87;100964.09;5034735;28;45597;-88
2021/10/05 00:42:12;;;;;;;;;1.00;0.00;;;;;16.70;64.51;100972.75;5020481;28;47194;-89
2021/10/05 00:44:39;;;;;;;;;0.25;0.25;;;;;16.67;63.97;100969.41;5021367;28;45443;-85
2021/10/05 00:47:13;;;;;;;;;0.50;0.50;;;;;16.67;63.85;100958.81;5038592;28;45242;-87
2021/10/05 00:49:40;;;;;;;;;1.25;1.00;;;;;16.71;64.09;100965.63;5039340;28;45565;-85
2021/10/05 00:52:07;;;;;;;;;3.00;1.00;;;;;16.68;63.73;100947.22;5042849;28;47219;-85
2021/10/05 00:54:35;;;;;;;;;2.25;1.00;;;;;16.75;64.26;100948.59;5042091;28;45367;-85
2021/10/05 00:57:01;;;;;;;;;0.25;0.25;;;;;16.74;63.75;100945.06;5043058;28;45331;-85
2021/10/05 00:59:26;;;;;;;;;1.00;1.00;;;;;16.71;63.97;100939.97;5042781;28;45529;-86
2021/10/05 01:01:52;;;;;;;;;1.00;1.00;;;;;16.73;63.97;100945.16;5042166;28;46207;-85
2021/10/05 01:04:18;;;;;;;;;1.00;1.00;;;;;16.67;63.99;100927.78;5041444;28;45762;-86
2021/10/05 01:07:11;;;;;;;;;0.00;0.00;;;;;16.75;63.82;100930.00;5042959;28;45209;-86
2021/10/05 01:09:37;;;;;;;;;1.00;1.00;;;;;16.75;63.57;100930.88;5019925;28;45352;-85
2021/10/05 01:12:04;;;;;;;;;0.50;0.50;;;;;16.71;63.91;100917.88;5037595;28;45266;-86
2021/10/05 01:14:30;;;;;;;;;0.50;0.50;;;;;16.71;63.76;100918.72;5041220;28;45387;-86
2021/10/05 01:16:58;;;;;;;;;0.75;0.75;;;;;16.73;63.71;100915.97;5042066;28;45417;-86
2021/10/05 01:19:23;;;;;;;;;1.25;1.00;;;;;16.73;63.81;100905.38;5041588;28;45388;-86
2021/10/05 01:21:49;;;;;;;;;0.50;0.50;;;;;16.73;63.87;100895.59;5042107;28;45427;-87
2021/10/05 01:24:16;;;;;;;;;1.33;1.33;;;;;16.77;63.82;100901.59;5040715;28;45440;-87
2021/10/05 01:26:43;;;;;;;;;1.25;0.25;;;;;16.77;63.69;100898.94;5042372;28;45357;-87
2021/10/05 01:29:15;;;;;;;;;2.50;1.00;;;;;16.74;63.86;100893.81;5042291;28;45237;-87
2021/10/05 01:31:46;;;;;;;;;1.00;1.00;;;;;16.74;64.01;100888.50;5042147;28;45358;-87
2021/10/05 01:34:13;;;;;;;;;1.50;1.00;;;;;16.72;64.09;100887.72;5041638;28;45206;-87
2021/10/05 01:36:38;;;;;;;;;1.00;1.00;;;;;16.65;64.01;100882.78;5042295;28;45395;-87
2021/10/05 01:39:24;;;;;;;;;1.00;1.00;;;;;16.61;64.10;100875.94;5041789;28;45519;-87
2021/10/05 01:41:52;;;;;;;;;1.00;1.00;;;;;16.58;64.37;100873.44;5042243;28;48185;-84
2021/10/05 01:44:18;;;;;;;;;0.50;0.50;;;;;16.49;64.17;100861.56;5023313;28;45429;-85
2021/10/05 01:46:43;;;;;;;;;1.00;1.00;;;;;16.44;64.63;100862.75;5040637;28;45662;-80
2021/10/05 01:49:13;;;;;;;;;2.25;0.00;;;;;16.40;64.84;100854.97;5041812;28;45198;-80
2021/10/05 01:51:38;;;;;;;;;0.25;0.25;;;;;16.37;64.54;100849.81;5041881;28;45481;-80
2021/10/05 01:54:04;;;;;;;;;3.00;0.50;;;;;16.38;64.55;100856.00;5041905;28;45359;-80
2021/10/05 01:56:29;;;;;;;;;0.50;0.50;;;;;16.39;64.65;100845.31;5041731;28;45308;-81
2021/10/05 01:58:54;;;;;;;;;1.00;1.00;;;;;16.31;64.73;100831.63;5041098;28;45461;-80
2021/10/05 02:01:20;;;;;;;;;1.00;0.00;;;;;16.35;64.91;100835.78;5040647;28;45413;-79
2021/10/05 02:03:45;;;;;;;;;1.00;0.00;;;;;16.30;64.77;100819.28;5041718;28;45359;-79
2021/10/05 02:06:10;;;;;;;;;1.25;1.00;;;;;16.31;64.51;100816.56;5041970;28;45423;-79
2021/10/05 02:08:36;;;;;;;;;1.00;0.00;;;;;16.40;64.69;100815.19;5040261;28;45405;-79
2021/10/05 02:11:01;;;;;;;;;1.00;1.00;;;;;16.41;64.96;100800.97;5041377;28;46094;-79
2021/10/05 02:13:27;;;;;;;;;1.00;1.00;;;;;16.46;64.91;100805.16;5041369;28;45387;-80
2021/10/05 02:15:52;;;;;;;;;0.00;0.00;;;;;16.53;64.35;100806.53;5041874;28;45646;-80
2021/10/05 02:18:17;;;;;;;;;0.25;0.00;;;;;16.53;64.51;100794.13;5039975;28;45509;-80
2021/10/05 02:20:43;;;;;;;;;1.00;1.00;;;;;16.57;64.46;100792.13;5041496;28;45427;-80
2021/10/05 02:23:08;;;;;;;;;0.25;0.25;;;;;16.62;64.21;100790.06;5039495;28;45209;-82
2021/10/05 02:25:34;;;;;;;;;0.25;0.25;;;;;16.64;64.55;100787.34;5040391;28;45561;-82
2021/10/05 02:28:00;;;;;;;;;1.00;0.50;;;;;16.61;64.50;100779.56;5041169;28;45387;-82
2021/10/05 02:30:25;;;;;;;;;0.75;0.75;;;;;16.64;64.20;100780.22;5041099;28;45288;-85
2021/10/05 02:32:51;;;;;;;;;3.00;1.00;;;;;16.63;64.33;100769.69;5040751;28;45129;-84
2021/10/05 02:35:16;;;;;;;;;0.75;0.75;;;;;16.66;64.46;100769.53;5041481;28;45232;-87
2021/10/05 02:37:41;;;;;;;;;1.75;1.75;;;;;16.63;64.48;100767.91;5041335;28;45306;-83
2021/10/05 02:40:09;;;;;;;;;0.50;0.50;;;;;16.61;63.83;100759.19;5040506;28;45472;-82
2021/10/05 02:42:36;;;;;;;;;3.75;0.00;;;;;16.62;64.30;100750.25;5040537;28;45627;-82
2021/10/05 02:45:02;;;;;;;;;0.00;0.00;;;;;16.65;64.15;100746.56;5041318;28;45343;-82
2021/10/05 02:47:28;;;;;;;;;1.50;1.00;;;;;16.65;64.27;100736.81;5041334;28;45512;-82
2021/10/05 02:49:53;;;;;;;;;0.00;0.00;;;;;16.67;64.05;100741.19;5040308;28;46571;-81
2021/10/05 02:52:21;;;;;;;;;1.75;1.00;;;;;16.63;64.42;100736.06;5041134;28;45269;-82
2021/10/05 02:54:47;;;;;;;;;0.00;0.00;;;;;16.64;64.29;100731.63;5040891;28;45285;-85
2021/10/05 02:57:18;;;;;;;;;1.00;1.00;;;;;16.62;64.07;100723.72;5040062;28;45561;-81
2021/10/05 02:59:45;;;;;;;;;2.00;0.50;;;;;16.67;63.97;100718.16;5038637;28;45567;-82
2021/10/05 03:02:11;;;;;;;;;0.00;0.00;;;;;16.62;64.17;100705.16;5040406;28;45338;-83
2021/10/05 03:04:38;;;;;;;;;1.25;0.50;;;;;16.57;64.39;100687.81;5040809;28;45261;-82
2021/10/05 03:07:04;;;;;;;;;0.00;0.00;;;;;16.56;64.39;100697.56;5040898;28;45444;-86
2021/10/05 03:09:29;;;;;;;;;4.50;2.00;;;;;16.53;64.18;100688.00;5039438;28;46399;-82
2021/10/05 03:11:54;;;;;;;;;5.00;2.00;;;;;16.57;64.41;100693.97;5039374;28;45476;-81
2021/10/05 03:14:20;;;;;;;;;0.75;0.75;;;;;16.55;64.38;100693.19;5039955;28;45424;-82
2021/10/05 03:16:46;;;;;;;;;0.00;0.00;;;;;16.57;64.28;100698.44;5040828;28;45402;-82
2021/10/05 03:19:12;;;;;;;;;1.00;1.00;;;;;16.56;64.51;100697.56;5040615;28;46235;-81
2021/10/05 03:21:38;;;;;;;;;3.00;1.00;;;;;16.59;64.46;100702.72;5039153;28;45318;-80
2021/10/05 03:24:03;;;;;;;;;1.00;0.00;;;;;16.57;64.41;100680.69;5040527;28;45231;-83
2021/10/05 03:26:29;;;;;;;;;0.00;0.00;;;;;16.56;64.39;100671.03;5040705;28;45250;-83
2021/10/05 03:28:54;;;;;;;;;1.00;1.00;;;;;16.57;64.67;100667.44;5038913;28;45325;-82
2021/10/05 03:31:19;;;;;;;;;1.50;1.50;;;;;16.58;64.35;100665.63;5040844;28;45650;-79
2021/10/05 03:33:45;;;;;;;;;0.00;0.00;;;;;16.64;64.32;100668.75;5040655;28;45299;-82
2021/10/05 03:36:13;;;;;;;;;1.00;1.00;;;;;16.62;64.51;100665.34;5039033;28;45498;-86
2021/10/05 03:38:39;;;;;;;;;1.00;1.00;;;;;16.67;64.53;100650.97;5040281;28;46348;-86
2021/10/05 03:41:05;;;;;;;;;2.00;1.75;;;;;16.68;64.56;100642.06;5017583;28;45675;-86
2021/10/05 03:43:31;;;;;;;;;1.25;1.25;;;;;16.71;64.57;100647.19;5040072;28;45466;-85
2021/10/05 03:45:56;;;;;;;;;2.25;1.25;;;;;16.69;64.37;100643.78;5028824;28;45529;-82
2021/10/05 03:48:23;;;;;;;;;2.50;1.25;;;;;16.69;64.50;100633.16;5028445;28;45365;-82
2021/10/05 03:50:49;;;;;;;;;1.00;1.00;;;;;16.68;64.56;100620.81;5039424;28;45520;-82
2021/10/05 03:53:19;;;;;;;;;1.25;1.00;;;;;16.71;64.74;100626.81;5040446;28;45311;-82
2021/10/05 03:55:56;;;;;;;;;1.00;1.00;;;;;16.74;64.39;100631.09;5039600;28;45367;-86
2021/10/05 03:58:23;;;;;;;;;1.50;1.00;;;;;16.73;64.40;100626.72;5039684;28;45390;-85
2021/10/05 04:00:50;;;;;;;;;1.00;1.00;;;;;16.70;64.73;100610.97;5039169;28;45513;-85
2021/10/05 04:03:16;;;;;;;;;1.25;1.25;;;;;16.75;64.60;100624.81;5038669;28;45234;-88
2021/10/05 04:05:42;;;;;;;;;2.25;0.75;;;;;16.75;64.11;100617.72;5040052;28;45344;-90
2021/10/05 04:08:09;;;;;;;;;2.00;1.00;;;;;16.71;64.65;100616.19;5039511;28;45320;-85
2021/10/05 04:10:34;;;;;;;;;3.00;1.00;;;;;16.73;64.63;100609.00;5039017;28;45836;-82
2021/10/05 04:13:00;;;;;;;;;1.00;1.00;;;;;16.75;64.68;100606.22;5039385;28;45264;-81
2021/10/05 04:15:25;;;;;;;;;0.75;0.75;;;;;16.75;64.87;100606.22;5039851;28;45350;-83
2021/10/05 04:17:51;;;;;;;;;1.00;1.00;;;;;16.68;64.45;100604.91;5039626;28;45472;-85
2021/10/05 04:20:17;;;;;;;;;1.00;1.00;;;;;16.67;65.50;100593.44;5039460;28;45375;-87
2021/10/05 04:22:42;;;;;;;;;2.00;1.00;;;;;16.65;64.83;100598.84;5038828;28;45240;-86
2021/10/05 04:25:08;;;;;;;;;1.50;1.50;;;;;16.63;64.69;100595.44;5039246;28;45450;-85
2021/10/05 04:27:35;;;;;;;;;1.00;1.00;;;;;16.63;64.61;100598.09;5039437;28;45429;-87
2021/10/05 04:30:02;;;;;;;;;2.50;2.50;;;;;16.65;64.73;100590.03;5039471;28;45237;-88
2021/10/05 04:32:27;;;;;;;;;3.25;2.00;;;;;16.67;64.82;100576.69;5021279;28;45408;-90
2021/10/05 04:34:53;;;;;;;;;1.00;1.00;;;;;16.65;64.78;100568.78;5021662;28;45921;-90
2021/10/05 04:37:18;;;;;;;;;1.50;1.50;;;;;16.65;64.73;100572.31;5033726;28;46443;-90
2021/10/05 04:39:43;;;;;;;;;0.00;0.00;;;;;16.71;64.43;100583.50;5034735;28;45276;-89
2021/10/05 04:42:09;;;;;;;;;1.50;1.00;;;;;16.71;64.58;100563.13;5020958;28;45257;-89
2021/10/05 04:44:34;;;;;;;;;2.50;1.75;;;;;16.71;64.76;100564.91;5039317;28;45360;-83
2021/10/05 04:47:00;;;;;;;;;2.00;1.00;;;;;16.69;64.43;100554.38;5038501;28;46247;-84
2021/10/05 04:49:25;;;;;;;;;3.00;1.50;;;;;16.72;64.59;100564.81;5039433;28;45603;-84
2021/10/05 04:51:51;;;;;;;;;2.75;1.25;;;;;16.68;64.54;100559.78;5035565;28;45494;-89
2021/10/05 04:54:16;;;;;;;;;2.00;2.00;;;;;16.69;64.86;100549.06;5037672;28;45411;-89
2021/10/05 04:56:42;;;;;;;;;1.75;1.50;;;;;16.72;64.51;100551.53;5038458;28;46395;-89
2021/10/05 04:59:08;;;;;;;;;2.25;1.00;;;;;16.75;64.93;100548.72;5039258;28;45391;-92
2021/10/05 05:01:33;;;;;;;;;1.50;1.50;;;;;16.69;64.66;100537.63;5039331;28;45240;-86
2021/10/05 05:03:59;;;;;;;;;1.00;0.00;;;;;16.73;64.61;100539.13;5038160;28;45231;-87
2021/10/05 05:06:24;;;;;;;;;3.00;3.00;;;;;16.74;64.66;100524.94;5030758;28;48237;-87
2021/10/05 05:08:50;;;;;;;;;2.00;1.00;;;;;16.67;64.94;100513.00;5037228;28;45436;-88
2021/10/05 05:11:15;;;;;;;;;2.00;1.00;;;;;16.66;64.80;100517.44;5037679;28;45414;-87
2021/10/05 05:13:40;;;;;;;;;1.00;1.00;;;;;16.68;64.84;100525.28;5031165;28;45609;-87
2021/10/05 05:16:06;;;;;;;;;1.00;0.00;;;;;16.62;64.90;100524.72;5021603;28;47850;-88
2021/10/05 05:18:31;;;;;;;;;1.00;1.00;;;;;16.60;65.09;100510.72;5038226;28;45197;-88
2021/10/05 05:20:56;;;;;;;;;1.50;1.50;;;;;16.60;65.14;100502.75;5038813;28;45414;-88
2021/10/05 05:23:22;;;;;;;;;1.00;1.00;;;;;16.63;64.73;100521.13;5027339;28;45974;-88
2021/10/05 05:25:47;;;;;;;;;1.00;1.00;;;;;16.63;65.41;100507.88;5030137;28;47308;-88
2021/10/05 05:28:14;;;;;;;;;2.50;1.00;;;;;16.70;64.74;100504.81;5036871;28;45340;-88
2021/10/05 05:30:40;;;;;;;;;2.00;1.50;;;;;16.67;65.13;100497.06;5037719;28;45456;-88
2021/10/05 05:33:06;;;;;;;;;3.25;2.00;;;;;16.65;64.97;100487.41;5036799;28;45431;-88
2021/10/05 05:35:31;;;;;;;;;3.00;1.50;;;;;16.67;65.12;100475.84;5029081;28;46689;-88
2021/10/05 05:37:56;;;;;;;;;2.00;2.00;;;;;16.70;65.10;100475.63;5038805;28;45483;-88
2021/10/05 05:40:22;;;;;;;;;2.00;2.00;;;;;16.71;64.94;100487.97;5040296;28;45523;-88
2021/10/05 05:42:47;;;;;;;;;1.75;1.75;;;;;16.69;64.76;100473.94;5032232;28;45395;-88
2021/10/05 05:45:12;;;;;;;;;4.25;3.25;;;;;16.69;65.12;100468.63;5038635;28;45541;-88
2021/10/05 05:47:40;;;;;;;;;2.25;2.25;;;;;16.71;65.07;100466.72;5023479;28;45459;-88
2021/10/05 05:50:07;;;;;;;;;3.00;1.25;;;;;16.71;64.60;100466.72;5029992;28;45177;-88
2021/10/05 05:52:33;;;;;;;;;2.25;2.25;;;;;16.69;64.53;100455.38;5041769;28;45488;-88
2021/10/05 05:54:59;;;;;;;;;3.00;2.00;;;;;16.69;65.09;100460.69;5041555;28;45472;-88
2021/10/05 05:57:24;;;;;;;;;3.50;2.75;;;;;16.69;64.97;100452.72;5039706;28;45757;-88
2021/10/05 05:59:50;;;;;;;;;5.50;3.00;;;;;16.71;65.02;100464.09;5038052;28;46118;-86
2021/10/05 06:02:15;;;;;;;;;4.00;4.00;;;;;16.73;64.62;100454.22;5040798;28;45379;-86
2021/10/05 06:04:40;;;;;;;;;6.75;3.50;;;;;16.73;64.84;100454.22;5040187;28;45521;-86
2021/10/05 06:07:06;;;;;;;;;4.75;4.75;;;;;16.72;64.92;100453.34;5041581;28;45346;-86
2021/10/05 06:09:35;;;;;;;;;6.25;6.00;;;;;16.70;65.32;100446.44;5041799;28;45457;-85
2021/10/05 06:12:06;;;;;;;;;8.75;6.00;;;;;16.68;65.31;100435.94;5041155;28;45444;-86
2021/10/05 06:14:32;;;;;;;;;6.00;6.00;;;;;16.68;64.96;100446.56;5041598;28;46359;-82
2021/10/05 06:17:00;;;;;;;;;7.75;5.75;;;;;16.72;65.27;100434.78;5039729;28;45268;-83
2021/10/05 06:19:25;;;;;;;;;8.25;6.50;;;;;16.72;65.35;100444.53;5041279;28;45296;-82
2021/10/05 06:21:51;;;;;;;;;8.25;7.00;;;;;16.71;65.23;100434.91;5039808;28;45403;-83
2021/10/05 06:24:17;;;;;;;;;9.50;9.50;;;;;16.70;65.39;100430.53;5034652;28;45366;-83
2021/10/05 06:26:42;;;;;;;;;6.75;6.75;;;;;16.68;65.46;100419.16;5040677;28;45251;-83
2021/10/05 06:29:08;;;;;;;;;7.00;7.00;;;;;16.71;65.90;100419.84;5038401;28;45497;-83
2021/10/05 06:31:33;;;;;;;;;9.00;8.75;;;;;16.68;65.11;100411.19;5040140;28;45565;-83
2021/10/05 06:33:58;;;;;;;;;5.00;5.00;;;;;16.64;65.48;100400.78;5041291;28;46194;-83
2021/10/05 06:36:24;;;;;;;;;8.00;8.00;;;;;16.69;65.67;100400.47;5022017;28;45499;-83
2021/10/05 06:38:49;;;;;;;;;9.50;8.50;;;;;16.69;65.23;100402.31;5041379;28;45379;-83
2021/10/05 06:41:15;;;;;;;;;9.25;8.25;;;;;16.71;65.36;100403.91;5030837;28;45921;-83
2021/10/05 06:43:40;;;;;;;;;6.75;6.75;;;;;16.70;65.45;100404.00;5039639;28;45494;-82
2021/10/05 06:46:06;;;;;;;;;6.25;5.75;;;;;16.74;65.42;100411.66;5038653;28;45426;-82
2021/10/05 06:48:31;;;;;;;;;11.00;6.00;;;;;16.74;65.77;100402.88;5039801;28;45378;-82
2021/10/05 06:50:56;;;;;;;;;7.25;5.00;;;;;16.72;65.67;100410.91;5019487;28;46923;-83
2021/10/05 06:53:22;;;;;;;;;5.50;5.50;;;;;16.75;65.39;100407.19;5040463;28;45420;-82
2021/10/05 06:55:48;;;;;;;;;5.25;5.00;;;;;16.74;65.39;100397.56;5040097;28;45250;-82
2021/10/05 06:58:14;;;;;;;;;4.00;4.00;;;;;16.81;65.55;100413.91;5038507;28;45861;-83
2021/10/05 07:00:41;;;;;;;;;4.75;4.75;;;;;16.80;65.62;100404.25;5043500;28;45388;-83
2021/10/05 07:03:06;;;;;;;;;5.00;4.50;;;;;16.78;65.61;100388.44;5045146;28;45564;-83
2021/10/05 07:05:32;;;;;;;;;4.50;4.50;;;;;16.75;65.92;100404.53;5047379;28;45226;-83
2021/10/05 07:07:57;;;;;;;;;5.00;4.50;;;;;16.71;66.29;100401.25;5040439;28;45471;-83
2021/10/05 07:10:24;;;;;;;;;4.75;3.75;;;;;16.73;67.31;100387.88;5039653;28;45458;-83
2021/10/05 07:12:50;;;;;;;;;6.75;3.25;;;;;16.69;66.67;100384.56;5040669;28;45358;-83
2021/10/05 07:15:16;;;;;;;;;5.00;4.00;;;;;16.68;66.56;100382.00;5037965;28;45454;-83
2021/10/05 07:17:43;;;;;;;;;2.75;2.75;;;;;16.65;66.62;100375.97;5040934;28;45336;-82
2021/10/05 07:20:09;;;;;;;;;6.00;3.75;;;;;16.65;66.42;100380.41;5039310;28;45466;-83
2021/10/05 07:22:35;;;;;;;;;4.00;4.00;;;;;16.62;66.82;100376.16;5038723;28;45315;-83
2021/10/05 07:25:00;;;;;;;;;4.00;4.00;;;;;16.65;66.60;100357.38;5038432;28;45300;-83
2021/10/05 07:27:26;;;;;;;;;6.00;3.00;;;;;16.71;66.65;100379.16;5040894;28;45419;-83
2021/10/05 07:29:51;;;;;;;;;5.00;3.25;;;;;16.71;66.75;100377.38;5040127;28;45217;-83
2021/10/05 07:32:17;;;;;;;;;4.00;4.00;;;;;16.73;66.90;100356.88;5016471;28;48434;-83
2021/10/05 07:34:43;;;;;;;;;5.75;4.25;;;;;16.72;66.58;100349.00;5015608;28;45701;-83
2021/10/05 07:37:10;;;;;;;;;2.00;2.00;;;;;16.72;67.14;100356.97;5040434;28;45277;-83
2021/10/05 07:39:36;;;;;;;;;2.50;2.50;;;;;16.72;66.84;100338.41;5039775;28;45320;-83
2021/10/05 07:42:01;;;;;;;;;5.00;2.50;;;;;16.74;66.74;100337.34;5040037;28;45698;-83
2021/10/05 07:44:30;;;;;;;;;5.00;4.25;;;;;16.76;67.16;100342.56;5021510;28;45555;-83
2021/10/05 07:46:58;;;;;;;;;4.00;3.00;;;;;16.72;67.35;100339.25;5043282;28;45273;-83
2021/10/05 07:49:24;;;;;;;;;3.00;2.75;;;;;16.73;67.17;100318.88;5039069;28;45529;-83
2021/10/05 07:51:49;;;;;;;;;2.00;2.00;;;;;16.69;67.18;100320.03;5038786;28;45473;-83
2021/10/05 07:54:14;;;;;;;;;2.00;2.00;;;;;16.72;67.91;100314.50;5040487;28;45553;-83
2021/10/05 07:56:40;;;;;;;;;2.00;2.00;;;;;16.72;67.47;100323.34;5035655;28;45392;-83
2021/10/05 07:59:05;;;;;;;;;2.25;2.25;;;;;16.74;67.88;100318.78;5032872;28;46010;-83
2021/10/05 08:01:31;;;;;;;;;2.00;2.00;;;;;16.75;67.40;100309.00;5039425;28;48547;-83
2021/10/05 08:03:56;;;;;;;;;2.50;2.50;;;;;16.76;67.44;100290.34;5039662;28;45373;-84
2021/10/05 08:06:21;;;;;;;;;3.00;3.00;;;;;16.80;66.90;100284.81;5040071;28;45786;-83
2021/10/05 08:08:47;;;;;;;;;2.75;2.75;;;;;16.87;67.57;100286.97;5039644;28;45405;-84
2021/10/05 08:11:12;;;;;;;;;5.75;1.25;;;;;16.86;67.45;100290.59;5039603;28;46300;-83
2021/10/05 08:13:38;;;;;;;;;3.00;3.00;;;;;16.87;67.02;100289.63;5036511;28;45601;-83
2021/10/05 08:16:04;;;;;;;;;3.00;3.00;;;;;16.91;67.17;100289.44;5029770;28;45398;-83
2021/10/05 08:18:29;;;;;;;;;4.25;4.25;;;;;16.94;67.14;100292.72;5033039;28;45253;-83
2021/10/05 08:20:54;;;;;;;;;1.75;1.75;;;;;16.91;66.97;100300.91;5039057;28;46176;-83
2021/10/05 08:23:20;;;;;;;;;1.00;1.00;;;;;16.95;66.95;100286.47;5039629;28;45359;-83
2021/10/05 08:25:46;;;;;;;;;2.00;2.00;;;;;16.96;66.62;100296.09;5039718;28;45230;-84
2021/10/05 08:28:11;;;;;;;;;2.25;1.50;;;;;16.96;67.54;100289.97;5039325;28;45248;-83
2021/10/05 08:30:37;;;;;;;;;2.75;1.50;;;;;16.98;66.72;100288.06;5007222;28;46910;-83
2021/10/05 08:33:03;;;;;;;;;3.25;2.25;;;;;16.97;66.94;100292.50;5033679;28;45276;-83
2021/10/05 08:35:29;;;;;;;;;2.00;2.00;;;;;16.96;67.28;100280.19;5039731;28;45342;-83
2021/10/05 08:37:56;;;;;;;;;3.25;2.00;;;;;16.99;67.44;100287.09;5020341;28;47450;-83
2021/10/05 08:40:23;;;;;;;;;1.00;1.00;;;;;16.97;67.03;100270.41;5038604;28;45689;-83
2021/10/05 08:42:48;;;;;;;;;1.75;1.75;;;;;17.01;66.86;100261.31;5026210;28;45634;-84
2021/10/05 08:45:13;;;;;;;;;2.00;2.00;;;;;16.96;67.35;100266.06;5031282;28;45687;-84
2021/10/05 08:47:39;;;;;;;;;4.50;1.00;;;;;16.99;67.35;100265.84;5037694;28;45190;-84
2021/10/05 08:50:06;;;;;;;;;3.00;1.50;;;;;16.98;67.82;100266.81;5035678;28;45935;-84
2021/10/05 08:52:33;;;;;;;;;2.25;2.25;;;;;16.91;67.56;100263.75;5038025;28;45675;-83
2021/10/05 08:54:59;;;;;;;;;1.00;1.00;;;;;16.91;68.11;100262.88;5038112;28;45370;-84
2021/10/05 08:57:24;;;;;;;;;2.75;2.00;;;;;16.89;67.86;100256.84;5036089;28;45423;-84
2021/10/05 08:59:50;;;;;;;;;1.25;1.25;;;;;16.86;67.58;100264.06;5038587;28;45451;-84
2021/10/05 09:02:19;;;;;;;;;2.00;1.25;;;;;16.90;68.05;100277.94;5038351;28;45379;-83
2021/10/05 09:04:47;;;;;;;;;2.00;1.00;;;;;16.87;67.99;100276.34;5019040;28;45609;-83
2021/10/05 09:07:22;;;;;;;;;1.50;1.50;;;;;16.82;68.08;100265.19;5033042;28;45385;-83
2021/10/05 09:09:59;;;;;;;;;1.50;1.50;;;;;16.82;68.47;100278.47;5037663;28;45425;-83
2021/10/05 09:12:26;;;;;;;;;0.00;0.00;;;;;16.80;68.66;100277.72;5039589;28;45351;-84
2021/10/05 09:14:52;;;;;;;;;2.00;2.00;;;;;16.79;68.94;100299.06;5037304;28;45463;-84
2021/10/05 09:17:20;;;;;;;;;2.25;1.00;;;;;16.74;68.70;100315.28;5041419;28;45462;-83
2021/10/05 09:19:45;;;;;;;;;0.50;0.50;;;;;16.70;69.00;100337.66;5041380;28;46098;-83
2021/10/05 09:22:25;;;;;;;;;1.00;1.00;;;;;16.67;69.27;100375.03;5032515;28;45475;-82
2021/10/05 09:24:53;;;;;;;;;1.00;1.00;;;;;16.58;69.20;100368.50;5040328;28;45443;-81
2021/10/05 09:27:19;;;;;;;;;0.00;0.00;;;;;16.49;69.63;100365.50;5041497;28;45424;-82
2021/10/05 09:29:47;;;;;;;;;0.00;0.00;;;;;16.42;69.62;100361.53;5021861;28;47244;-82
2021/10/05 09:32:16;;;;;;;;;0.00;0.00;;;;;16.36;70.00;100370.72;5039249;28;45824;-82
2021/10/05 09:34:55;;;;;;;;;0.00;0.00;;;;;16.31;69.65;100367.50;5023010;28;45368;-82
2021/10/05 09:37:26;;;;;;;;;0.00;0.00;;;;;16.26;69.77;100364.28;5040983;28;45407;-82
2021/10/05 09:40:13;;;;;;;;;0.00;0.00;;;;;16.23;70.09;100361.84;5041505;28;45319;-82
2021/10/05 09:42:41;;;;;;;;;0.00;0.00;;;;;16.19;69.78;100369.16;5027888;28;45181;-82
2021/10/05 09:45:09;;;;;;;;;0.00;0.00;;;;;16.18;70.40;100376.25;5039416;28;45470;-82
2021/10/05 09:47:40;;;;;;;;;1.00;0.00;;;;;16.20;70.44;100384.09;5037319;28;46968;-82
2021/10/05 09:50:28;;;;;;;;;3.00;0.75;;;;;16.15;70.70;100379.06;5036501;28;45809;-81
2021/10/05 09:52:59;;;;;;;;;1.00;1.00;;;;;16.21;70.71;100388.47;5041370;28;45337;-82
2021/10/05 09:55:31;;;;;;;;;2.00;1.00;;;;;16.26;70.66;100393.47;5027879;28;45333;-82
2021/10/05 09:57:57;;;;;;;;;0.00;0.00;;;;;16.23;70.67;100393.66;5039843;28;45463;-82
2021/10/05 10:00:24;;;;;;;;;1.00;0.00;;;;;16.20;70.20;100386.75;5041249;28;46307;-82
2021/10/05 10:02:51;;;;;;;;;2.75;0.25;;;;;16.20;71.29;100384.94;5023081;28;45982;-81
2021/10/05 10:05:18;;;;;;;;;0.00;0.00;;;;;16.22;71.07;100391.97;5031133;28;45414;-82
2021/10/05 10:07:46;;;;;;;;;0.00;0.00;;;;;16.23;70.40;100406.91;5040722;28;45356;-81
2021/10/05 10:10:15;;;;;;;;;1.50;1.00;;;;;16.21;70.60;100401.72;5040146;28;45475;-81
2021/10/05 10:12:46;;;;;;;;;0.75;0.75;;;;;16.20;70.65;100405.31;5023016;28;45460;-82
2021/10/05 10:15:12;;;;;;;;;0.50;0.50;;;;;16.23;70.09;100422.81;5039982;28;45529;-82
2021/10/05 10:17:38;;;;;;;;;0.00;0.00;;;;;16.22;70.09;100429.09;5039195;28;45575;-82
2021/10/05 10:20:06;;;;;;;;;0.00;0.00;;;;;16.24;70.31;100429.84;5038955;28;45521;-82
2021/10/05 10:22:43;;;;;;;;;0.50;0.50;;;;;16.24;69.98;100437.78;5036397;28;45441;-82
2021/10/05 10:25:19;;;;;;;;;1.00;1.00;;;;;16.26;70.71;100433.25;5038981;28;45612;-82
2021/10/05 10:27:45;;;;;;;;;1.00;1.00;;;;;16.29;70.54;100441.00;5041396;28;45371;-82
2021/10/05 10:30:11;;;;;;;;;1.00;1.00;;;;;16.33;70.45;100437.22;5017992;28;47346;-82
2021/10/05 10:32:46;;;;;;;;;2.00;1.00;;;;;16.34;71.24;100444.22;5031493;28;45634;-82
2021/10/05 10:35:12;;;;;;;;;1.75;0.00;;;;;16.37;70.05;100440.53;5040311;28;45454;-82
2021/10/05 10:37:45;;;;;;;;;0.00;0.00;;;;;16.44;70.06;100454.25;5034068;28;45481;-82
2021/10/05 10:40:13;;;;;;;;;1.00;1.00;;;;;16.46;69.95;100458.53;5022431;28;48261;-82
2021/10/05 10:42:40;;;;;;;;;1.50;0.75;;;;;16.50;71.18;100459.16;5041202;28;45533;-82
2021/10/05 10:45:11;;;;;;;;;1.50;0.00;;;;;16.57;70.64;100465.78;5040788;28;45263;-83
2021/10/05 10:47:41;;;;;;;;;1.00;1.00;;;;;16.62;70.20;100466.34;5038435;28;45324;-82
2021/10/05 10:50:08;;;;;;;;;1.25;1.00;;;;;16.63;69.74;100470.72;5023061;28;46994;-83
2021/10/05 10:52:36;;;;;;;;;0.00;0.00;;;;;16.61;69.25;100463.81;5041323;28;45714;-82
2021/10/05 10:55:03;;;;;;;;;3.00;1.00;;;;;16.65;69.46;100465.31;5014175;28;45447;-82
2021/10/05 10:57:32;;;;;;;;;1.00;0.00;;;;;16.66;69.13;100475.00;5041005;28;45444;-82
2021/10/05 11:00:12;;;;;;;;;1.00;1.00;;;;;16.62;69.58;100474.31;5040921;28;46244;-82
2021/10/05 11:02:42;;;;;;;;;0.00;0.00;;;;;16.61;68.86;100488.56;5037446;28;45551;-82
2021/10/05 11:05:07;;;;;;;;;2.00;2.00;;;;;16.60;69.95;100491.28;5023042;28;45268;-82
2021/10/05 11:07:33;;;;;;;;;0.25;0.25;;;;;16.58;69.05;100491.38;5036348;28;46580;-82
2021/10/05 11:09:59;;;;;;;;;1.00;1.00;;;;;16.57;68.52;100491.50;5039426;28;45428;-82
2021/10/05 11:12:24;;;;;;;;;0.50;0.00;;;;;16.53;68.30;100496.97;5038119;28;45337;-82
2021/10/05 11:14:50;;;;;;;;;1.50;1.00;;;;;16.53;69.13;100496.97;5040298;28;45382;-82
2021/10/05 11:17:17;;;;;;;;;0.25;0.25;;;;;16.59;68.23;100506.38;5039638;28;45626;-82
2021/10/05 11:19:42;;;;;;;;;0.25;0.25;;;;;16.56;67.23;100511.84;5040690;28;45546;-82
2021/10/05 11:22:13;;;;;;;;;1.00;1.00;;;;;16.56;67.61;100517.16;5040582;28;45516;-82